createdAt,value
2022-11-16T00:02:14.700Z,10.22
2022-11-16T00:05:16.217Z,10.19
2022-11-16T00:08:17.615Z,10.22
2022-11-16T00:11:19.057Z,10.22
2022-11-16T00:14:22.090Z,10.26
2022-11-16T00:17:23.542Z,10.25
2022-11-16T00:20:24.927Z,10.26
2022-11-16T00:23:26.348Z,10.26
2022-11-16T00:26:28.148Z,10.27
2022-11-16T00:29:29.747Z,10.27
2022-11-16T00:32:31.172Z,10.25
2022-11-16T00:35:37.333Z,10.26
2022-11-16T00:38:39.866Z,10.27
2022-11-16T00:41:42.695Z,10.24
2022-11-16T00:44:44.121Z,10.25
2022-11-16T00:47:45.581Z,10.27
2022-11-16T00:50:47.327Z,10.27
2022-11-16T00:53:49.510Z,10.25
2022-11-16T00:56:50.944Z,10.25
2022-11-16T00:59:52.452Z,10.25
2022-11-16T01:02:54.776Z,10.27
2022-11-16T01:06:01.518Z,10.27
2022-11-16T01:09:03.163Z,10.28
2022-11-16T01:12:04.996Z,10.28
2022-11-16T01:15:08.274Z,10.30
2022-11-16T01:18:09.703Z,10.29
2022-11-16T01:21:11.170Z,10.31
2022-11-16T01:24:13.203Z,10.29
2022-11-16T01:27:14.827Z,10.29
2022-11-16T01:30:19.161Z,10.30
2022-11-16T01:33:31.737Z,10.30
2022-11-16T01:36:33.332Z,10.30
2022-11-16T01:39:36.831Z,10.32
2022-11-16T01:42:38.604Z,10.29
2022-11-16T01:45:41.068Z,10.30
2022-11-16T01:48:46.220Z,10.31
2022-11-16T01:51:53.406Z,10.31
2022-11-16T01:54:55.628Z,10.32
2022-11-16T01:58:00.427Z,10.31
2022-11-16T02:01:03.875Z,10.29
2022-11-16T02:04:14.543Z,10.29
2022-11-16T02:07:41.473Z,10.26
2022-11-16T02:11:00.506Z,10.26
2022-11-16T02:14:20.818Z,10.22
2022-11-16T02:17:57.837Z,10.19
2022-11-16T02:21:23.569Z,10.19
2022-11-16T02:24:44.450Z,10.19
2022-11-16T02:28:15.476Z,10.13
2022-11-16T02:31:23.445Z,10.12
2022-11-16T02:34:30.799Z,10.12
2022-11-16T02:37:37.852Z,10.10
2022-11-16T02:40:45.457Z,10.10
2022-11-16T02:44:01.408Z,10.10
2022-11-16T02:47:09.210Z,10.03
2022-11-16T02:50:16.185Z,9.99
2022-11-16T02:53:17.715Z,9.97
2022-11-16T02:56:19.917Z,9.99
2022-11-16T02:59:25.880Z,9.99
2022-11-16T03:02:55.085Z,9.95
2022-11-16T03:06:16.322Z,9.93
2022-11-16T03:09:24.406Z,9.87
2022-11-16T03:12:31.706Z,9.82
2022-11-16T03:15:37.660Z,9.88
2022-11-16T03:18:41.050Z,9.87
2022-11-16T03:21:58.799Z,9.82
2022-11-16T03:25:00.557Z,9.82
2022-11-16T03:28:33.680Z,9.80
2022-11-16T03:31:47.132Z,9.78
2022-11-16T03:34:56.628Z,9.76
2022-11-16T03:38:00.371Z,9.74
2022-11-16T03:41:05.606Z,9.72
2022-11-16T03:44:11.115Z,9.68
2022-11-16T03:47:14.005Z,9.64
2022-11-16T03:50:15.708Z,9.66
2022-11-16T03:53:17.992Z,9.63
2022-11-16T03:56:19.958Z,9.60
2022-11-16T03:59:22.060Z,9.61
2022-11-16T04:02:23.563Z,9.59
2022-11-16T04:05:28.198Z,9.58
2022-11-16T04:08:30.043Z,9.52
2022-11-16T04:11:32.075Z,9.48
2022-11-16T04:14:33.942Z,9.42
2022-11-16T04:17:35.682Z,9.40
2022-11-16T04:20:37.280Z,9.38
2022-11-16T04:23:39.008Z,9.33
2022-11-16T04:26:47.618Z,9.26
2022-11-16T04:29:49.695Z,9.24
2022-11-16T04:32:51.495Z,9.21
2022-11-16T04:35:53.032Z,9.14
2022-11-16T04:38:54.459Z,9.13
2022-11-16T04:41:56.095Z,9.04
2022-11-16T04:44:57.654Z,8.98
2022-11-16T04:48:03.014Z,9.05
2022-11-16T04:51:07.719Z,9.01
2022-11-16T04:54:10.207Z,8.98
2022-11-16T04:57:12.128Z,8.95
2022-11-16T05:00:14.349Z,8.89
2022-11-16T05:03:15.904Z,8.80
2022-11-16T05:06:17.637Z,8.77
2022-11-16T05:09:19.852Z,8.76
2022-11-16T05:12:27.673Z,8.81
2022-11-16T05:15:32.995Z,8.79
2022-11-16T05:18:35.518Z,8.70
2022-11-16T05:21:38.084Z,8.75
2022-11-16T05:24:40.509Z,8.76
2022-11-16T05:27:42.065Z,8.68
2022-11-16T05:30:45.746Z,8.65
2022-11-16T05:33:49.549Z,8.62
2022-11-16T05:36:52.996Z,8.64
2022-11-16T05:39:54.692Z,8.64
2022-11-16T05:43:00.436Z,8.58
2022-11-16T05:46:04.990Z,8.53
2022-11-16T05:49:07.136Z,8.44
2022-11-16T05:52:10.239Z,8.38
2022-11-16T05:55:13.009Z,8.30
2022-11-16T05:58:17.580Z,8.24
2022-11-16T06:01:19.462Z,8.19
2022-11-16T06:04:27.121Z,8.13
2022-11-16T06:07:29.528Z,8.09
2022-11-16T06:10:31.415Z,8.08
2022-11-16T06:13:33.440Z,7.91
2022-11-16T06:16:35.882Z,7.95
2022-11-16T06:19:41.390Z,7.86
2022-11-16T06:22:43.011Z,7.67
2022-11-16T06:25:44.593Z,7.61
2022-11-16T06:28:46.346Z,7.57
2022-11-16T06:31:48.766Z,7.52
2022-11-16T06:34:50.701Z,7.42
2022-11-16T06:37:52.240Z,7.30
2022-11-16T06:40:56.477Z,7.29
2022-11-16T06:44:00.617Z,7.28
2022-11-16T06:47:07.572Z,7.15
2022-11-16T06:50:10.207Z,7.22
2022-11-16T06:53:12.792Z,7.12
2022-11-16T06:56:15.409Z,7.09
2022-11-16T06:59:31.932Z,7.11
2022-11-16T07:02:37.182Z,7.10
2022-11-16T07:05:40.627Z,7.01
2022-11-16T07:08:45.753Z,7.09
2022-11-16T07:11:50.762Z,7.11
2022-11-16T07:14:53.918Z,7.04
2022-11-16T07:17:56.058Z,6.90
2022-11-16T07:20:57.530Z,6.85
2022-11-16T07:23:58.964Z,6.86
2022-11-16T07:27:01.147Z,6.79
2022-11-16T07:30:08.260Z,6.91
2022-11-16T07:33:31.103Z,6.85
2022-11-16T07:36:51.533Z,6.84
2022-11-16T07:39:53.000Z,6.73
2022-11-16T07:42:57.583Z,6.74
2022-11-16T07:49:46.752Z,6.90
2022-11-16T07:52:51.278Z,6.97
2022-11-16T07:55:56.864Z,7.01
2022-11-16T07:59:00.421Z,7.08
2022-11-16T08:02:04.004Z,7.10
2022-11-16T08:05:06.657Z,7.12
2022-11-16T08:08:09.078Z,7.19
2022-11-16T08:11:12.823Z,7.23
2022-11-16T08:14:14.380Z,7.26
2022-11-16T08:17:16.617Z,7.28
2022-11-16T08:20:18.856Z,7.32
2022-11-16T08:23:21.569Z,7.40
2022-11-16T08:26:23.375Z,7.42
2022-11-16T08:29:34.420Z,7.47
2022-11-16T08:32:38.409Z,7.52
2022-11-16T08:35:40.797Z,7.55
2022-11-16T08:38:42.311Z,7.59
2022-11-16T08:41:43.840Z,7.61
2022-11-16T08:44:45.551Z,7.67
2022-11-16T08:47:49.432Z,7.74
2022-11-16T08:51:16.094Z,7.76
2022-11-16T08:54:14.307Z,7.82
2022-11-16T08:57:17.211Z,7.83
2022-11-16T09:00:22.337Z,7.87
2022-11-16T09:03:23.776Z,7.94
2022-11-16T09:06:26.638Z,7.97
2022-11-16T09:09:28.058Z,8.00
2022-11-16T09:12:29.495Z,8.34
2022-11-16T09:15:30.889Z,8.55
2022-11-16T09:18:33.770Z,8.36
2022-11-16T09:21:35.361Z,8.28
2022-11-16T09:24:36.845Z,8.27
2022-11-16T09:27:38.249Z,8.25
2022-11-16T09:30:39.733Z,8.25
2022-11-16T09:33:41.134Z,8.26
2022-11-16T09:36:42.558Z,8.27
2022-11-16T09:39:44.023Z,8.33
2022-11-16T09:43:04.099Z,8.37
2022-11-16T09:46:31.467Z,8.46
2022-11-16T09:49:40.936Z,8.54
2022-11-16T09:52:46.252Z,8.64
2022-11-16T09:55:52.553Z,8.67
2022-11-16T09:59:13.491Z,8.69
2022-11-16T10:02:43.095Z,8.70
2022-11-16T10:06:21.884Z,8.74
2022-11-16T10:09:23.407Z,8.75
2022-11-16T10:12:34.257Z,8.80
2022-11-16T10:15:57.240Z,8.85
2022-11-16T10:19:04.207Z,8.90
2022-11-16T10:22:25.868Z,8.95
2022-11-16T10:25:40.711Z,9.06
2022-11-16T10:28:50.913Z,9.07
2022-11-16T10:32:25.784Z,9.16
2022-11-16T10:35:35.789Z,9.20
2022-11-16T10:38:37.596Z,9.25
2022-11-16T10:41:48.264Z,9.36
2022-11-16T10:44:56.790Z,9.40
2022-11-16T10:48:07.840Z,9.52
2022-11-16T10:51:10.131Z,9.72
2022-11-16T10:54:16.322Z,9.84
2022-11-16T10:57:18.325Z,9.84
2022-11-16T11:00:33.815Z,9.81
2022-11-16T11:03:35.813Z,9.84
2022-11-16T11:06:38.730Z,9.86
2022-11-16T11:09:40.213Z,9.92
2022-11-16T11:13:02.079Z,9.99
2022-11-16T11:16:16.188Z,10.03
2022-11-16T11:19:28.445Z,10.17
2022-11-16T11:22:32.284Z,10.35
2022-11-16T11:25:33.656Z,10.54
2022-11-16T11:28:37.910Z,10.77
2022-11-16T11:31:42.531Z,10.66
2022-11-16T11:34:47.688Z,10.49
2022-11-16T11:37:52.599Z,10.28
2022-11-16T11:41:02.194Z,10.16
2022-11-16T11:44:06.227Z,10.10
2022-11-16T11:47:56.837Z,10.10
2022-11-16T11:50:50.977Z,10.10
2022-11-16T11:54:00.953Z,10.10
2022-11-16T11:57:03.865Z,10.25
2022-11-16T12:00:06.477Z,10.87
2022-11-16T12:03:47.102Z,10.83
2022-11-16T12:07:12.748Z,10.91
2022-11-16T12:10:36.039Z,11.13
2022-11-16T12:14:14.910Z,10.73
2022-11-16T12:17:53.754Z,10.52
2022-11-16T12:21:12.720Z,10.34
2022-11-16T12:24:23.384Z,10.27
2022-11-16T12:27:32.806Z,10.32
2022-11-16T12:30:55.237Z,10.27
2022-11-16T12:34:12.775Z,10.45
2022-11-16T12:37:40.494Z,10.60
2022-11-16T12:41:06.907Z,10.62
2022-11-16T12:44:15.868Z,10.62
2022-11-16T12:47:27.318Z,10.48
2022-11-16T12:50:50.010Z,10.49
2022-11-16T12:54:27.996Z,10.51
2022-11-16T12:57:55.265Z,10.55
2022-11-16T13:01:08.907Z,10.51
2022-11-16T13:04:20.449Z,10.61
2022-11-16T13:07:27.526Z,10.55
2022-11-16T13:10:35.000Z,10.58
2022-11-16T13:13:37.482Z,10.52
2022-11-16T13:16:39.472Z,10.48
2022-11-16T13:19:45.692Z,10.39
2022-11-16T13:23:00.244Z,10.28
2022-11-16T13:26:06.094Z,10.19
2022-11-16T13:29:18.268Z,10.43
2022-11-16T13:32:31.014Z,10.83
2022-11-16T13:35:37.257Z,10.81
2022-11-16T13:38:53.986Z,10.66
2022-11-16T13:42:12.741Z,10.66
2022-11-16T13:45:21.632Z,10.79
2022-11-16T13:48:34.992Z,10.98
2022-11-16T13:51:36.826Z,10.54
2022-11-16T13:54:46.841Z,10.15
2022-11-16T13:57:53.624Z,10.07
2022-11-16T14:01:02.410Z,10.05
2022-11-16T14:04:40.964Z,9.99
2022-11-16T14:07:44.671Z,10.00
2022-11-16T14:10:48.966Z,10.06
2022-11-16T14:13:50.591Z,10.09
2022-11-16T14:16:52.110Z,10.11
2022-11-16T14:19:54.060Z,10.07
2022-11-16T14:23:38.767Z,10.09
2022-11-16T14:27:04.072Z,10.18
2022-11-16T14:30:08.633Z,10.08
2022-11-16T14:33:22.900Z,9.92
2022-11-16T14:36:39.993Z,9.79
2022-11-16T14:39:43.637Z,9.72
2022-11-16T14:43:17.250Z,9.80
2022-11-16T14:46:27.829Z,10.09
2022-11-16T14:49:34.560Z,10.32
2022-11-16T14:52:48.830Z,10.41
2022-11-16T14:55:50.304Z,10.21
2022-11-16T14:58:57.716Z,9.92
2022-11-16T15:02:04.926Z,9.75
2022-11-16T15:05:06.991Z,9.60
2022-11-16T15:08:19.318Z,9.42
2022-11-16T15:11:33.703Z,9.22
2022-11-16T15:14:41.523Z,9.10
2022-11-16T15:17:45.720Z,9.03
2022-11-16T15:20:50.891Z,8.94
2022-11-16T15:24:15.444Z,8.83
2022-11-16T15:27:34.011Z,8.88
2022-11-16T15:30:37.534Z,8.96
2022-11-16T15:33:43.063Z,8.96
2022-11-16T15:36:45.406Z,8.86
2022-11-16T15:39:46.892Z,8.70
2022-11-16T15:42:49.887Z,8.51
2022-11-16T15:45:52.635Z,8.33
2022-11-16T15:48:55.043Z,8.16
2022-11-16T15:51:58.440Z,8.06
2022-11-16T15:54:59.890Z,8.03
2022-11-16T15:58:19.941Z,7.99
2022-11-16T16:01:22.744Z,7.82
2022-11-16T16:04:25.798Z,7.82
2022-11-16T16:07:41.498Z,7.65
2022-11-16T16:10:42.896Z,7.80
2022-11-16T16:13:56.548Z,7.76
2022-11-16T16:17:00.135Z,7.73
2022-11-16T16:20:04.786Z,7.66
2022-11-16T16:23:13.418Z,7.64
2022-11-16T16:26:16.303Z,7.43
2022-11-16T16:29:17.720Z,7.37
2022-11-16T16:32:26.437Z,7.33
2022-11-16T16:35:28.047Z,7.42
2022-11-16T16:38:29.631Z,7.49
2022-11-16T16:41:31.024Z,7.47
2022-11-16T16:44:32.442Z,7.43
2022-11-16T16:47:33.902Z,7.46
2022-11-16T16:50:35.937Z,7.35
2022-11-16T16:53:37.477Z,7.25
2022-11-16T16:56:39.521Z,7.21
2022-11-16T16:59:41.485Z,7.22
2022-11-16T17:02:43.087Z,7.22
2022-11-16T17:05:44.501Z,7.30
2022-11-16T17:08:45.926Z,7.28
2022-11-16T17:11:47.572Z,7.31
2022-11-16T17:14:48.975Z,7.34
2022-11-16T17:17:50.410Z,7.35
2022-11-16T17:20:51.846Z,7.50
2022-11-16T17:23:53.934Z,7.46
2022-11-16T17:26:55.345Z,7.39
2022-11-16T17:29:56.784Z,7.44
2022-11-16T17:32:58.475Z,7.44
2022-11-16T17:35:59.888Z,7.27
2022-11-16T17:39:01.384Z,7.23
2022-11-16T17:42:02.796Z,7.13
2022-11-16T17:45:04.575Z,7.12
2022-11-16T17:48:06.176Z,7.10
2022-11-16T17:51:07.861Z,7.06
2022-11-16T17:54:09.257Z,7.16
2022-11-16T17:57:10.684Z,7.04
2022-11-16T18:00:12.703Z,6.88
2022-11-16T18:03:14.146Z,6.90
2022-11-16T18:06:21.434Z,6.91
2022-11-16T18:09:22.882Z,6.97
2022-11-16T18:12:25.415Z,6.99
2022-11-16T18:15:28.956Z,6.99
2022-11-16T18:18:31.573Z,7.05
2022-11-16T18:21:39.092Z,7.10
2022-11-16T18:24:40.480Z,7.12
2022-11-16T18:27:41.975Z,7.25
2022-11-16T18:30:43.391Z,7.32
2022-11-16T18:33:45.577Z,7.43
2022-11-16T18:36:46.984Z,7.41
2022-11-16T18:39:48.467Z,7.52
2022-11-16T18:42:49.918Z,7.63
2022-11-16T18:45:51.402Z,7.62
2022-11-16T18:48:53.314Z,7.60
2022-11-16T18:51:54.759Z,7.70
2022-11-16T18:54:56.159Z,7.63
2022-11-16T18:57:57.568Z,7.60
2022-11-16T19:01:04.024Z,7.65
2022-11-16T19:04:05.525Z,7.63
2022-11-16T19:07:07.056Z,7.65
2022-11-16T19:10:09.179Z,7.68
2022-11-16T19:13:10.643Z,7.71
2022-11-16T19:16:13.636Z,7.80
2022-11-16T19:19:15.071Z,7.81
2022-11-16T19:22:16.490Z,7.84
2022-11-16T19:25:17.976Z,7.87
2022-11-16T19:28:19.387Z,7.90
2022-11-16T19:31:26.419Z,7.95
2022-11-16T19:34:33.005Z,7.95
2022-11-16T19:37:34.873Z,7.97
2022-11-16T19:40:36.440Z,7.99
2022-11-16T19:43:38.465Z,8.01
2022-11-16T19:46:40.020Z,7.97
2022-11-16T19:49:41.452Z,8.04
2022-11-16T19:52:42.853Z,8.10
2022-11-16T19:55:52.789Z,8.09
2022-11-16T19:58:54.311Z,8.10
2022-11-16T20:01:55.768Z,8.14
2022-11-16T20:04:57.252Z,8.19
2022-11-16T20:08:02.068Z,8.19
2022-11-16T20:11:11.230Z,8.16
2022-11-16T20:14:12.729Z,8.17
2022-11-16T20:17:14.198Z,8.15
2022-11-16T20:20:15.612Z,8.15
2022-11-16T20:23:17.048Z,8.08
2022-11-16T20:26:20.204Z,8.12
2022-11-16T20:29:22.227Z,8.10
2022-11-16T20:32:23.911Z,8.15
2022-11-16T20:35:25.361Z,8.18
2022-11-16T20:38:27.040Z,8.18
2022-11-16T20:41:32.066Z,8.21
2022-11-16T20:44:33.484Z,8.20
2022-11-16T20:47:34.906Z,8.25
2022-11-16T20:50:36.342Z,8.26
2022-11-16T20:53:38.103Z,8.27
2022-11-16T20:56:39.720Z,8.24
2022-11-16T20:59:41.166Z,8.32
2022-11-16T21:02:42.625Z,8.34
2022-11-16T21:05:45.793Z,8.31
2022-11-16T21:08:47.227Z,8.28
2022-11-16T21:11:48.888Z,8.28
2022-11-16T21:14:50.309Z,8.33
2022-11-16T21:17:51.707Z,8.35
2022-11-16T21:21:06.882Z,8.39
2022-11-16T21:24:11.355Z,8.41
2022-11-16T21:27:12.756Z,8.42
2022-11-16T21:30:14.363Z,8.47
2022-11-16T21:33:15.822Z,8.47
2022-11-16T21:36:25.749Z,8.49
2022-11-16T21:39:27.131Z,8.44
2022-11-16T21:42:28.556Z,8.49
2022-11-16T21:45:29.987Z,8.52
2022-11-16T21:48:32.731Z,8.47
2022-11-16T21:51:34.179Z,8.50
2022-11-16T21:54:35.594Z,8.56
2022-11-16T21:57:37.003Z,8.50
2022-11-16T22:00:38.397Z,8.48
2022-11-16T22:03:39.850Z,8.45
2022-11-16T22:06:41.262Z,8.48
2022-11-16T22:09:42.828Z,8.38
2022-11-16T22:12:44.259Z,8.38
2022-11-16T22:15:46.250Z,8.36
2022-11-16T22:18:47.660Z,8.37
2022-11-16T22:21:49.063Z,8.32
2022-11-16T22:24:50.679Z,8.33
2022-11-16T22:28:19.094Z,8.35
2022-11-16T22:31:14.948Z,8.29
2022-11-16T22:34:16.402Z,8.27
2022-11-16T22:37:18.022Z,8.27
2022-11-16T22:40:19.415Z,8.25
2022-11-16T22:43:23.055Z,8.27
2022-11-16T22:46:24.479Z,8.23
2022-11-16T22:49:25.931Z,8.24
2022-11-16T22:52:27.355Z,8.26
2022-11-16T22:55:28.823Z,8.28
2022-11-16T22:58:30.245Z,8.26
2022-11-16T23:01:32.771Z,8.28
2022-11-16T23:04:34.202Z,8.28
2022-11-16T23:07:35.989Z,8.28
2022-11-16T23:10:37.468Z,8.25
2022-11-16T23:13:38.881Z,8.25
2022-11-16T23:16:41.247Z,8.20
2022-11-16T23:19:42.939Z,8.21
2022-11-16T23:22:44.400Z,8.23
2022-11-16T23:25:45.859Z,8.25
2022-11-16T23:28:47.302Z,8.29
2022-11-16T23:31:48.716Z,8.26
2022-11-16T23:34:50.172Z,8.30
2022-11-16T23:37:55.506Z,8.28
2022-11-16T23:40:56.908Z,8.28
2022-11-16T23:43:58.314Z,8.27
2022-11-16T23:46:59.699Z,8.26
2022-11-16T23:50:01.125Z,8.30
2022-11-16T23:53:02.931Z,8.32
2022-11-16T23:56:06.157Z,8.32
2022-11-16T23:59:07.796Z,8.35
